createdAt,value
2023-10-30T00:01:27.419Z,3.06
2023-10-30T00:03:54.277Z,3.25
2023-10-30T00:06:21.149Z,2.69
2023-10-30T00:08:47.892Z,3.01
2023-10-30T00:11:14.669Z,2.80
2023-10-30T00:13:42.821Z,2.60
2023-10-30T00:16:09.578Z,2.56
2023-10-30T00:18:36.287Z,2.66
2023-10-30T00:21:03.252Z,2.62
2023-10-30T00:23:29.948Z,3.11
2023-10-30T00:25:56.662Z,2.89
2023-10-30T00:28:23.381Z,2.85
2023-10-30T00:30:51.454Z,2.76
2023-10-30T00:33:18.207Z,2.53
2023-10-30T00:35:44.958Z,2.27
2023-10-30T00:38:11.618Z,2.26
2023-10-30T00:40:38.442Z,2.24
2023-10-30T00:43:05.097Z,2.33
2023-10-30T00:45:31.822Z,2.50
2023-10-30T00:47:59.873Z,2.23
2023-10-30T00:50:26.597Z,2.27
2023-10-30T00:52:53.272Z,2.45
2023-10-30T00:55:20.005Z,2.55
2023-10-30T00:57:46.661Z,2.63
2023-10-30T01:00:13.875Z,2.67
2023-10-30T01:02:40.915Z,2.63
2023-10-30T01:05:09.608Z,8.24
2023-10-30T01:07:36.386Z,16.24
2023-10-30T01:10:03.155Z,3.12
2023-10-30T01:12:29.813Z,2.95
2023-10-30T01:14:57.291Z,2.80
2023-10-30T01:17:23.959Z,2.94
2023-10-30T01:19:50.654Z,2.70
2023-10-30T01:22:18.671Z,2.43
2023-10-30T01:24:45.395Z,2.45
2023-10-30T01:27:12.058Z,2.55
2023-10-30T01:29:38.733Z,2.15
2023-10-30T01:32:06.113Z,2.58
2023-10-30T01:34:32.943Z,2.33
2023-10-30T01:36:59.664Z,2.27
2023-10-30T01:39:27.753Z,2.22
2023-10-30T01:41:54.463Z,2.33
2023-10-30T01:44:21.162Z,2.42
2023-10-30T01:46:47.846Z,2.49
2023-10-30T01:49:14.592Z,2.56
2023-10-30T01:51:41.700Z,2.29
2023-10-30T01:54:08.481Z,2.47
2023-10-30T01:56:36.496Z,2.19
2023-10-30T01:59:03.236Z,2.49
2023-10-30T02:01:29.955Z,2.20
2023-10-30T02:03:56.893Z,2.28
2023-10-30T02:06:23.627Z,2.38
2023-10-30T02:08:50.381Z,2.56
2023-10-30T02:11:17.080Z,2.46
2023-10-30T02:13:53.937Z,2.45
2023-10-30T02:16:20.961Z,2.25
2023-10-30T02:18:47.728Z,2.45
2023-10-30T02:21:14.474Z,2.64
2023-10-30T02:23:41.128Z,2.48
2023-10-30T02:26:09.136Z,2.52
2023-10-30T02:28:35.802Z,2.62
2023-10-30T02:31:02.508Z,2.40
2023-10-30T02:33:29.261Z,2.49
2023-10-30T02:35:56.129Z,2.53
2023-10-30T02:38:22.797Z,2.71
2023-10-30T02:40:49.530Z,2.59
2023-10-30T02:43:17.555Z,2.49
2023-10-30T02:45:44.289Z,2.53
2023-10-30T02:48:11.025Z,2.64
2023-10-30T02:50:37.818Z,2.53
2023-10-30T02:53:05.429Z,2.49
2023-10-30T02:55:32.406Z,2.64
2023-10-30T02:57:59.060Z,2.45
2023-10-30T03:00:27.143Z,2.61
2023-10-30T03:02:53.915Z,2.73
2023-10-30T03:05:20.794Z,2.61
2023-10-30T03:07:47.449Z,2.44
2023-10-30T03:10:14.285Z,2.61
2023-10-30T03:12:41.003Z,2.41
2023-10-30T03:15:10.223Z,2.72
2023-10-30T03:17:38.309Z,2.33
2023-10-30T03:20:06.254Z,2.43
2023-10-30T03:22:32.921Z,2.57
2023-10-30T03:24:59.650Z,2.53
2023-10-30T03:27:26.321Z,2.71
2023-10-30T03:29:53.056Z,2.62
2023-10-30T03:32:19.717Z,2.23
2023-10-30T03:34:47.804Z,2.71
2023-10-30T03:37:14.504Z,2.50
2023-10-30T03:39:41.268Z,2.54
2023-10-30T03:42:07.993Z,2.56
2023-10-30T03:44:34.770Z,2.66
2023-10-30T03:47:02.264Z,2.59
2023-10-30T03:49:29.006Z,2.47
2023-10-30T03:51:56.995Z,2.56
2023-10-30T03:54:23.746Z,2.56
2023-10-30T03:56:50.401Z,2.48
2023-10-30T03:59:17.100Z,2.49
2023-10-30T04:01:43.837Z,2.61
2023-10-30T04:04:10.708Z,2.37
2023-10-30T04:06:37.924Z,2.50
2023-10-30T04:09:06.216Z,2.55
2023-10-30T04:11:32.879Z,2.53
2023-10-30T04:13:59.583Z,3.01
2023-10-30T04:16:26.316Z,2.88
2023-10-30T04:18:53.063Z,2.85
2023-10-30T04:21:19.793Z,2.77
2023-10-30T04:23:46.548Z,2.78
2023-10-30T04:26:14.532Z,2.68
2023-10-30T04:28:41.192Z,2.78
2023-10-30T04:31:07.841Z,3.24
2023-10-30T04:33:34.583Z,3.39
2023-10-30T04:36:02.252Z,3.41
2023-10-30T04:38:30.346Z,3.27
2023-10-30T04:40:57.005Z,2.88
2023-10-30T04:43:25.004Z,3.53
2023-10-30T04:45:51.735Z,3.16
2023-10-30T04:48:18.549Z,3.00
2023-10-30T04:50:45.256Z,3.23
2023-10-30T04:53:11.936Z,3.49
2023-10-30T04:55:38.577Z,3.20
2023-10-30T04:58:05.274Z,3.26
2023-10-30T05:00:33.359Z,3.51
2023-10-30T05:03:00.137Z,3.62
2023-10-30T05:05:26.809Z,3.49
2023-10-30T05:07:53.580Z,3.33
2023-10-30T05:10:20.249Z,3.49
2023-10-30T05:12:46.925Z,3.71
2023-10-30T05:15:13.615Z,3.73
2023-10-30T05:17:41.686Z,3.42
2023-10-30T05:20:09.611Z,3.90
2023-10-30T05:22:36.309Z,4.11
2023-10-30T05:25:03.229Z,3.41
2023-10-30T05:27:29.987Z,3.09
2023-10-30T05:29:56.779Z,3.51
2023-10-30T05:32:23.490Z,3.64
2023-10-30T05:34:51.994Z,3.71
2023-10-30T05:37:18.680Z,3.74
2023-10-30T05:39:45.403Z,3.38
2023-10-30T05:42:12.112Z,3.92
2023-10-30T05:44:38.800Z,3.46
2023-10-30T05:47:05.896Z,3.54
2023-10-30T05:49:32.550Z,3.82
2023-10-30T05:52:00.629Z,3.95
2023-10-30T05:54:27.325Z,3.59
2023-10-30T05:56:54.136Z,3.71
2023-10-30T05:59:20.814Z,3.93
2023-10-30T06:01:47.556Z,3.97
2023-10-30T06:04:14.339Z,3.64
2023-10-30T06:06:41.204Z,3.88
2023-10-30T06:09:09.286Z,4.25
2023-10-30T06:11:35.972Z,4.60
2023-10-30T06:14:02.681Z,4.33
2023-10-30T06:16:29.477Z,4.31
2023-10-30T06:18:56.260Z,4.29
2023-10-30T06:21:23.022Z,4.50
2023-10-30T06:23:49.737Z,4.20
2023-10-30T06:26:17.789Z,3.85
2023-10-30T06:28:44.497Z,4.15
2023-10-30T06:31:15.054Z,4.33
2023-10-30T06:33:42.154Z,4.81
2023-10-30T06:36:09.070Z,4.50
2023-10-30T06:38:35.800Z,4.45
2023-10-30T06:41:02.618Z,4.37
2023-10-30T06:43:30.635Z,4.47
2023-10-30T06:46:00.244Z,4.80
2023-10-30T06:48:26.969Z,4.29
2023-10-30T06:50:53.696Z,4.49
2023-10-30T06:53:20.411Z,4.42
2023-10-30T06:55:47.079Z,4.43
2023-10-30T06:58:13.823Z,4.41
2023-10-30T07:00:41.894Z,4.41
2023-10-30T07:03:08.743Z,3.99
2023-10-30T07:05:35.594Z,3.75
2023-10-30T07:08:02.270Z,4.07
2023-10-30T07:10:28.940Z,4.27
2023-10-30T07:12:55.621Z,4.24
2023-10-30T07:15:22.375Z,4.02
2023-10-30T07:17:50.424Z,3.87
2023-10-30T07:20:17.179Z,4.40
2023-10-30T07:22:43.960Z,4.45
2023-10-30T07:25:10.623Z,4.56
2023-10-30T07:27:37.363Z,4.42
2023-10-30T07:30:04.581Z,4.75
2023-10-30T07:32:31.402Z,4.70
2023-10-30T07:34:59.544Z,4.30
2023-10-30T07:37:26.225Z,4.43
2023-10-30T07:39:53.016Z,4.47
2023-10-30T07:42:19.814Z,4.12
2023-10-30T07:44:46.506Z,4.16
2023-10-30T07:47:14.683Z,4.07
2023-10-30T07:49:41.524Z,4.37
2023-10-30T07:52:09.672Z,4.02
2023-10-30T07:54:36.422Z,4.20
2023-10-30T07:57:03.475Z,4.12
2023-10-30T07:59:30.145Z,3.92
2023-10-30T08:01:56.857Z,3.98
2023-10-30T08:04:23.723Z,4.05
2023-10-30T08:06:50.552Z,3.61
2023-10-30T08:09:18.610Z,3.78
2023-10-30T08:11:45.365Z,3.67
2023-10-30T08:14:12.173Z,3.85
2023-10-30T08:16:38.898Z,3.61
2023-10-30T08:19:05.679Z,4.05
2023-10-30T08:21:32.379Z,3.92
2023-10-30T08:23:59.090Z,3.93
2023-10-30T08:26:27.119Z,4.46
2023-10-30T08:28:53.788Z,4.13
2023-10-30T08:31:20.855Z,4.40
2023-10-30T08:33:47.551Z,4.50
2023-10-30T08:36:21.484Z,4.51
2023-10-30T08:38:48.195Z,4.15
2023-10-30T08:41:15.988Z,4.33
2023-10-30T08:43:44.101Z,4.58
2023-10-30T08:46:11.599Z,4.50
2023-10-30T08:48:38.402Z,4.64
2023-10-30T08:51:05.362Z,4.89
2023-10-30T08:53:32.078Z,4.30
2023-10-30T08:55:59.167Z,5.13
2023-10-30T08:58:26.938Z,4.25
2023-10-30T09:00:54.967Z,4.40
2023-10-30T09:03:21.866Z,4.34
2023-10-30T09:05:48.992Z,4.26
2023-10-30T09:08:15.859Z,4.51
2023-10-30T09:10:42.643Z,4.21
2023-10-30T09:13:09.346Z,4.58
2023-10-30T09:15:36.035Z,4.16
2023-10-30T09:18:04.195Z,4.23
2023-10-30T09:20:30.923Z,3.93
2023-10-30T09:22:57.640Z,4.13
2023-10-30T09:25:24.377Z,3.99
2023-10-30T09:27:51.112Z,4.07
2023-10-30T09:30:18.081Z,4.15
2023-10-30T09:32:44.844Z,4.27
2023-10-30T09:35:12.921Z,4.21
2023-10-30T09:37:39.624Z,4.05
2023-10-30T09:40:07.695Z,4.05
2023-10-30T09:42:34.670Z,4.48
2023-10-30T09:45:01.352Z,4.52
2023-10-30T09:47:28.034Z,4.55
2023-10-30T09:49:54.863Z,4.20
2023-10-30T09:52:22.922Z,4.29
2023-10-30T09:54:50.101Z,4.12
2023-10-30T09:57:17.056Z,4.20
2023-10-30T09:59:43.710Z,3.95
2023-10-30T10:02:10.722Z,3.61
2023-10-30T10:04:38.626Z,3.70
2023-10-30T10:07:05.642Z,5.72
2023-10-30T10:09:33.752Z,8.62
2023-10-30T10:12:00.492Z,4.88
2023-10-30T10:14:30.762Z,4.92
2023-10-30T10:17:00.565Z,4.20
2023-10-30T10:19:27.892Z,3.81
2023-10-30T10:21:54.721Z,3.77
2023-10-30T10:24:28.507Z,3.69
2023-10-30T10:26:59.601Z,3.33
2023-10-30T10:29:26.311Z,3.10
2023-10-30T10:31:53.086Z,2.93
2023-10-30T10:34:20.227Z,3.24
2023-10-30T10:36:47.537Z,3.74
2023-10-30T10:39:14.296Z,3.42
2023-10-30T10:41:40.958Z,3.44
2023-10-30T10:44:09.666Z,3.66
2023-10-30T10:46:38.645Z,3.63
2023-10-30T10:49:05.820Z,3.87
2023-10-30T10:51:34.498Z,3.73
2023-10-30T10:54:03.753Z,4.32
2023-10-30T10:56:30.582Z,4.01
2023-10-30T10:59:01.351Z,4.11
2023-10-30T11:01:29.566Z,4.16
2023-10-30T11:03:56.351Z,3.96
2023-10-30T11:06:23.091Z,3.94
2023-10-30T11:08:53.705Z,3.90
2023-10-30T11:11:27.040Z,3.99
2023-10-30T11:14:10.017Z,4.16
2023-10-30T11:16:41.618Z,3.97
2023-10-30T11:19:08.394Z,4.06
2023-10-30T11:21:35.112Z,4.31
2023-10-30T11:24:03.434Z,3.67
2023-10-30T11:26:37.245Z,3.92
2023-10-30T11:29:05.321Z,4.09
2023-10-30T11:31:32.275Z,3.73
2023-10-30T11:34:07.914Z,3.96
2023-10-30T11:36:35.466Z,4.33
2023-10-30T11:39:08.512Z,3.78
2023-10-30T11:41:37.173Z,3.92
2023-10-30T11:44:07.883Z,3.63
2023-10-30T11:46:38.712Z,3.81
2023-10-30T11:49:08.690Z,3.68
2023-10-30T11:51:36.113Z,3.87
2023-10-30T11:54:02.864Z,4.20
2023-10-30T11:56:29.671Z,4.34
2023-10-30T11:58:56.343Z,4.23
2023-10-30T12:01:23.091Z,4.07
2023-10-30T12:03:49.820Z,4.18
2023-10-30T12:06:17.952Z,4.16
2023-10-30T12:08:44.677Z,4.72
2023-10-30T12:11:11.456Z,4.84
2023-10-30T12:13:38.449Z,4.40
2023-10-30T12:16:05.762Z,4.18
2023-10-30T12:18:32.478Z,4.83
2023-10-30T12:20:59.227Z,4.68
2023-10-30T12:23:27.278Z,4.27
2023-10-30T12:26:03.461Z,4.28
2023-10-30T12:28:35.356Z,3.92
2023-10-30T12:31:16.629Z,3.87
2023-10-30T12:33:43.376Z,3.95
2023-10-30T12:36:10.080Z,3.82
2023-10-30T12:38:38.263Z,4.10
2023-10-30T12:41:05.256Z,3.88
2023-10-30T12:43:34.608Z,3.76
2023-10-30T12:46:01.377Z,3.83
2023-10-30T12:48:28.115Z,4.03
2023-10-30T12:50:54.793Z,4.04
2023-10-30T12:53:21.496Z,4.25
2023-10-30T12:55:49.520Z,4.27
2023-10-30T12:58:16.216Z,3.85
2023-10-30T13:00:43.986Z,3.75
2023-10-30T13:03:29.647Z,3.76
2023-10-30T13:05:56.766Z,4.23
2023-10-30T13:08:23.456Z,3.65
2023-10-30T13:10:51.459Z,3.71
2023-10-30T13:13:18.128Z,3.97
2023-10-30T13:15:44.882Z,3.98
2023-10-30T13:18:11.605Z,4.20
2023-10-30T13:20:38.275Z,4.46
2023-10-30T13:23:04.976Z,3.96
2023-10-30T13:25:31.685Z,3.89
2023-10-30T13:27:59.774Z,3.70
2023-10-30T13:30:26.628Z,3.75
2023-10-30T13:32:53.428Z,3.93
2023-10-30T13:35:20.136Z,3.93
2023-10-30T13:37:46.821Z,4.05
2023-10-30T13:40:13.634Z,4.44
2023-10-30T13:42:40.467Z,4.82
2023-10-30T13:45:09.201Z,5.45
2023-10-30T13:47:35.899Z,6.28
2023-10-30T13:50:02.698Z,6.74
2023-10-30T13:52:29.439Z,6.54
2023-10-30T13:54:56.225Z,5.53
2023-10-30T13:57:23.092Z,5.43
2023-10-30T13:59:49.914Z,5.36
2023-10-30T14:02:18.144Z,4.54
2023-10-30T14:04:46.358Z,4.55
2023-10-30T14:07:13.307Z,4.77
2023-10-30T14:09:40.140Z,4.28
2023-10-30T14:12:07.442Z,4.25
2023-10-30T14:14:34.098Z,4.32
2023-10-30T14:17:00.772Z,3.70
2023-10-30T14:19:29.848Z,4.25
2023-10-30T14:21:59.530Z,4.01
2023-10-30T14:24:26.218Z,4.52
2023-10-30T14:26:52.857Z,5.44
2023-10-30T14:29:19.573Z,5.27
2023-10-30T14:31:46.266Z,4.40
2023-10-30T14:34:13.066Z,4.36
2023-10-30T14:36:41.125Z,4.30
2023-10-30T14:39:07.898Z,4.49
2023-10-30T14:41:34.634Z,4.19
2023-10-30T14:44:01.349Z,3.84
2023-10-30T14:46:28.108Z,3.91
2023-10-30T14:48:54.892Z,4.29
2023-10-30T14:51:21.627Z,4.00
2023-10-30T14:53:49.803Z,3.97
2023-10-30T14:56:16.543Z,4.23
2023-10-30T14:58:43.344Z,3.84
2023-10-30T15:01:10.173Z,3.82
2023-10-30T15:03:37.230Z,3.81
2023-10-30T15:06:04.518Z,4.27
2023-10-30T15:08:31.264Z,4.15
2023-10-30T15:10:59.304Z,3.81
2023-10-30T15:13:26.006Z,3.46
2023-10-30T15:15:52.843Z,3.51
2023-10-30T15:18:19.668Z,3.26
2023-10-30T15:20:46.483Z,2.85
2023-10-30T15:23:13.280Z,2.63
2023-10-30T15:25:40.015Z,2.41
2023-10-30T15:28:08.189Z,2.44
2023-10-30T15:30:34.924Z,2.64
2023-10-30T15:33:01.748Z,2.69
2023-10-30T15:35:28.450Z,2.51
2023-10-30T15:37:55.185Z,2.57
2023-10-30T15:40:21.970Z,2.76
2023-10-30T15:42:48.740Z,2.90
2023-10-30T15:45:16.969Z,3.01
2023-10-30T15:47:43.823Z,3.18
2023-10-30T15:50:11.268Z,3.23
2023-10-30T15:57:37.121Z,1.91
2023-10-30T16:00:04.608Z,1.92
2023-10-30T16:02:40.353Z,1.88
2023-10-30T16:05:07.821Z,1.95
2023-10-30T16:07:34.810Z,1.88
2023-10-30T16:12:31.067Z,2.01
2023-10-30T16:14:57.819Z,1.89
2023-10-30T16:17:24.603Z,1.87
2023-10-30T16:22:22.224Z,2.09
2023-10-30T16:24:48.898Z,2.03
2023-10-30T16:27:15.577Z,2.05
2023-10-30T16:29:42.259Z,2.18
2023-10-30T16:32:08.949Z,2.20
2023-10-30T16:34:35.657Z,2.30
2023-10-30T16:37:03.987Z,2.18
2023-10-30T16:39:30.705Z,2.18
2023-10-30T16:41:57.415Z,2.18
2023-10-30T16:44:24.062Z,2.25
2023-10-30T16:46:50.864Z,2.19
2023-10-30T16:49:17.621Z,2.31
2023-10-30T16:51:44.412Z,2.04
2023-10-30T16:54:12.756Z,2.01
2023-10-30T16:56:39.490Z,2.03
2023-10-30T16:59:06.175Z,1.93
2023-10-30T17:01:32.900Z,1.96
2023-10-30T17:03:59.600Z,1.81
2023-10-30T17:06:26.331Z,1.71
2023-10-30T17:08:53.010Z,1.67
2023-10-30T17:11:21.084Z,1.60
2023-10-30T17:13:47.790Z,1.83
2023-10-30T17:16:14.509Z,1.91
2023-10-30T17:18:41.215Z,1.85
2023-10-30T17:21:07.981Z,1.83
2023-10-30T17:23:34.697Z,1.77
2023-10-30T17:26:01.565Z,1.66
2023-10-30T17:28:29.596Z,1.86
2023-10-30T17:30:56.359Z,1.88
2023-10-30T17:33:23.062Z,1.61
2023-10-30T17:35:49.786Z,1.24
2023-10-30T17:38:16.490Z,1.49
2023-10-30T17:40:43.212Z,1.52
2023-10-30T17:43:09.935Z,1.49
2023-10-30T17:45:37.948Z,1.51
2023-10-30T17:48:05.246Z,1.61
2023-10-30T17:50:31.915Z,1.46
2023-10-30T17:52:58.626Z,1.59
2023-10-30T17:55:25.486Z,1.65
2023-10-30T17:57:52.384Z,1.52
2023-10-30T18:00:19.400Z,1.54
2023-10-30T18:02:47.517Z,1.75
2023-10-30T18:05:14.318Z,1.51
2023-10-30T18:07:41.056Z,1.83
2023-10-30T18:10:08.409Z,1.70
2023-10-30T18:12:35.081Z,1.68
2023-10-30T18:15:01.778Z,1.90
2023-10-30T18:17:28.456Z,1.68
2023-10-30T18:19:56.501Z,1.54
2023-10-30T18:22:23.177Z,1.35
2023-10-30T18:24:50.017Z,1.46
2023-10-30T18:27:16.875Z,1.53
2023-10-30T18:29:44.054Z,1.51
2023-10-30T18:32:10.769Z,1.48
2023-10-30T18:34:37.507Z,1.80
2023-10-30T18:37:05.656Z,1.55
2023-10-30T18:39:32.299Z,1.49
2023-10-30T18:41:58.994Z,1.72
2023-10-30T18:44:25.701Z,2.24
2023-10-30T18:46:52.431Z,1.79
2023-10-30T18:49:19.116Z,1.88
2023-10-30T18:51:45.807Z,1.66
2023-10-30T18:54:13.784Z,1.49
2023-10-30T18:56:40.465Z,1.57
2023-10-30T18:59:07.200Z,2.12
2023-10-30T19:01:34.138Z,2.32
2023-10-30T19:04:00.929Z,2.04
2023-10-30T19:06:27.603Z,2.39
2023-10-30T19:08:54.290Z,2.08
2023-10-30T19:11:22.304Z,1.92
2023-10-30T19:13:49.182Z,2.10
2023-10-30T19:16:16.001Z,1.91
2023-10-30T19:18:42.782Z,1.48
2023-10-30T19:21:09.444Z,1.56
2023-10-30T19:23:36.217Z,1.64
2023-10-30T19:26:03.084Z,1.82
2023-10-30T19:28:31.186Z,1.75
2023-10-30T19:30:57.900Z,1.36
2023-10-30T19:33:24.586Z,1.50
2023-10-30T19:35:51.289Z,1.61
2023-10-30T19:38:17.980Z,1.64
2023-10-30T19:40:44.739Z,1.73
2023-10-30T19:43:11.481Z,1.82
2023-10-30T19:45:39.512Z,2.01
2023-10-30T19:48:07.055Z,2.05
2023-10-30T19:50:34.032Z,1.92
2023-10-30T19:53:00.837Z,1.90
2023-10-30T19:55:27.570Z,2.02
2023-10-30T19:57:54.264Z,1.88
2023-10-30T20:00:21.043Z,1.97
2023-10-30T20:02:49.780Z,2.33
2023-10-30T20:05:16.837Z,2.43
2023-10-30T20:07:43.699Z,2.77
2023-10-30T20:10:22.281Z,2.35
2023-10-30T20:12:57.623Z,2.50
2023-10-30T20:15:24.946Z,2.34
2023-10-30T20:17:53.138Z,1.90
2023-10-30T20:20:19.864Z,1.71
2023-10-30T20:22:46.559Z,1.56
2023-10-30T20:25:13.773Z,2.02
2023-10-30T20:27:40.647Z,1.90
2023-10-30T20:30:08.648Z,1.81
2023-10-30T20:32:35.560Z,1.62
2023-10-30T20:35:04.234Z,1.85
2023-10-30T20:37:31.434Z,1.58
2023-10-30T20:39:58.321Z,1.36
2023-10-30T20:42:25.408Z,1.54
2023-10-30T20:44:52.476Z,1.51
2023-10-30T20:47:19.491Z,1.37
2023-10-30T20:49:46.267Z,1.45
2023-10-30T20:52:14.312Z,1.41
2023-10-30T20:54:41.049Z,1.61
2023-10-30T20:57:07.737Z,1.59
2023-10-30T20:59:34.385Z,1.54
2023-10-30T21:02:01.156Z,1.54
2023-10-30T21:04:27.931Z,1.38
2023-10-30T21:06:54.643Z,1.67
2023-10-30T21:09:22.641Z,1.69
2023-10-30T21:11:49.359Z,1.68
2023-10-30T21:14:16.008Z,1.75
2023-10-30T21:16:42.916Z,1.63
2023-10-30T21:19:09.666Z,1.56
2023-10-30T21:21:36.474Z,1.81
2023-10-30T21:24:03.310Z,1.78
2023-10-30T21:26:31.329Z,1.66
2023-10-30T21:28:58.044Z,1.74
2023-10-30T21:31:24.845Z,1.75
2023-10-30T21:33:51.595Z,1.78
2023-10-30T21:36:18.317Z,1.78
2023-10-30T21:38:45.026Z,1.73
2023-10-30T21:41:11.782Z,1.64
2023-10-30T21:43:39.856Z,1.87
2023-10-30T21:46:06.735Z,1.75
2023-10-30T21:48:33.434Z,1.78
2023-10-30T21:51:00.161Z,1.66
2023-10-30T21:53:26.860Z,1.69
2023-10-30T21:55:53.602Z,1.70
2023-10-30T21:58:20.245Z,1.82
2023-10-30T22:00:48.513Z,1.73
2023-10-30T22:03:15.240Z,1.78
2023-10-30T22:05:41.992Z,1.98
2023-10-30T22:08:08.702Z,2.12
2023-10-30T22:10:35.616Z,1.93
2023-10-30T22:13:02.260Z,1.95
2023-10-30T22:15:29.063Z,1.83
2023-10-30T22:17:57.137Z,1.56
2023-10-30T22:20:23.902Z,1.48
2023-10-30T22:22:50.760Z,1.77
2023-10-30T22:25:17.496Z,2.00
2023-10-30T22:27:44.183Z,1.94
2023-10-30T22:30:11.301Z,1.42
2023-10-30T22:32:40.281Z,1.28
2023-10-30T22:35:09.026Z,1.46
2023-10-30T22:37:36.028Z,1.41
2023-10-30T22:40:03.208Z,1.44
2023-10-30T22:42:29.933Z,1.36
2023-10-30T22:44:56.622Z,1.48
2023-10-30T22:47:23.334Z,1.41
2023-10-30T22:49:50.074Z,1.65
2023-10-30T22:52:18.211Z,1.54
2023-10-30T22:54:45.110Z,1.40
2023-10-30T22:57:11.750Z,1.44
2023-10-30T22:59:38.511Z,1.48
2023-10-30T23:02:05.523Z,1.39
2023-10-30T23:04:32.317Z,1.56
2023-10-30T23:06:58.964Z,1.52
2023-10-30T23:09:27.041Z,1.34
2023-10-30T23:11:53.727Z,1.62
2023-10-30T23:14:20.543Z,1.45
2023-10-30T23:16:47.277Z,1.47
2023-10-30T23:19:14.016Z,1.54
2023-10-30T23:21:40.801Z,1.24
2023-10-30T23:24:08.135Z,1.32
2023-10-30T23:26:36.122Z,1.19
2023-10-30T23:29:02.796Z,1.29
2023-10-30T23:31:29.468Z,1.32
2023-10-30T23:33:56.162Z,1.27
2023-10-30T23:36:22.925Z,1.26
2023-10-30T23:38:49.629Z,1.10
2023-10-30T23:41:16.296Z,1.33
2023-10-30T23:43:44.388Z,1.18
2023-10-30T23:46:11.122Z,1.15
2023-10-30T23:48:37.849Z,1.32
2023-10-30T23:51:04.617Z,1.19
2023-10-30T23:53:31.380Z,1.18
2023-10-30T23:55:58.130Z,1.19
2023-10-30T23:58:24.872Z,1.21
